sensor_id;sensor_type;location;lat;lon;timestamp;P1;durP1;ratioP1;P2;durP2;ratioP2
18168;SDS011;49877;50.398;30.324;2022-10-16T00:00:29;13.73;;;8.53;;
18168;SDS011;49877;50.398;30.324;2022-10-16T00:02:56;15.73;;;8.27;;
18168;SDS011;49877;50.398;30.324;2022-10-16T00:05:24;13.47;;;8.60;;
18168;SDS011;49877;50.398;30.324;2022-10-16T00:07:51;16.23;;;8.27;;
18168;SDS011;49877;50.398;30.324;2022-10-16T00:10:18;14.53;;;9.13;;
18168;SDS011;49877;50.398;30.324;2022-10-16T00:12:45;15.27;;;8.73;;
18168;SDS011;49877;50.398;30.324;2022-10-16T00:15:12;15.43;;;8.37;;
18168;SDS011;49877;50.398;30.324;2022-10-16T00:17:39;15.87;;;9.37;;
18168;SDS011;49877;50.398;30.324;2022-10-16T00:20:06;16.40;;;9.30;;
18168;SDS011;49877;50.398;30.324;2022-10-16T00:22:35;15.57;;;8.93;;
18168;SDS011;49877;50.398;30.324;2022-10-16T00:25:02;13.63;;;8.80;;
18168;SDS011;49877;50.398;30.324;2022-10-16T00:27:29;12.53;;;8.40;;
18168;SDS011;49877;50.398;30.324;2022-10-16T00:29:56;13.97;;;8.63;;
18168;SDS011;49877;50.398;30.324;2022-10-16T00:32:23;14.20;;;8.40;;
18168;SDS011;49877;50.398;30.324;2022-10-16T00:34:50;17.33;;;9.07;;
18168;SDS011;49877;50.398;30.324;2022-10-16T00:37:19;15.70;;;8.83;;
18168;SDS011;49877;50.398;30.324;2022-10-16T00:39:48;14.13;;;8.67;;
18168;SDS011;49877;50.398;30.324;2022-10-16T00:42:14;15.83;;;8.87;;
18168;SDS011;49877;50.398;30.324;2022-10-16T00:44:44;18.10;;;9.13;;
18168;SDS011;49877;50.398;30.324;2022-10-16T00:47:14;16.27;;;9.27;;
18168;SDS011;49877;50.398;30.324;2022-10-16T01:02:15;16.13;;;9.20;;
18168;SDS011;49877;50.398;30.324;2022-10-16T01:04:43;15.87;;;9.10;;
18168;SDS011;49877;50.398;30.324;2022-10-16T01:07:12;19.83;;;9.20;;
18168;SDS011;49877;50.398;30.324;2022-10-16T01:09:51;14.43;;;8.70;;
18168;SDS011;49877;50.398;30.324;2022-10-16T01:12:28;15.43;;;8.73;;
18168;SDS011;49877;50.398;30.324;2022-10-16T01:15:04;16.63;;;8.67;;
18168;SDS011;49877;50.398;30.324;2022-10-16T01:17:38;16.13;;;8.57;;
18168;SDS011;49877;50.398;30.324;2022-10-16T01:20:11;14.27;;;8.60;;
18168;SDS011;49877;50.398;30.324;2022-10-16T01:22:48;14.83;;;8.90;;
18168;SDS011;49877;50.398;30.324;2022-10-16T01:25:30;13.87;;;8.43;;
18168;SDS011;49877;50.398;30.324;2022-10-16T01:28:06;13.13;;;8.37;;
18168;SDS011;49877;50.398;30.324;2022-10-16T01:30:37;20.23;;;8.90;;
18168;SDS011;49877;50.398;30.324;2022-10-16T01:33:06;13.40;;;8.03;;
18168;SDS011;49877;50.398;30.324;2022-10-16T01:35:39;13.70;;;8.77;;
18168;SDS011;49877;50.398;30.324;2022-10-16T01:38:10;15.83;;;8.97;;
18168;SDS011;49877;50.398;30.324;2022-10-16T01:40:43;14.23;;;8.13;;
18168;SDS011;49877;50.398;30.324;2022-10-16T01:43:15;14.10;;;8.60;;
18168;SDS011;49877;50.398;30.324;2022-10-16T01:45:45;12.90;;;8.30;;
18168;SDS011;49877;50.398;30.324;2022-10-16T01:48:12;14.83;;;8.87;;
18168;SDS011;49877;50.398;30.324;2022-10-16T01:50:49;14.30;;;8.53;;
18168;SDS011;49877;50.398;30.324;2022-10-16T01:53:20;15.47;;;8.77;;
18168;SDS011;49877;50.398;30.324;2022-10-16T01:55:49;14.33;;;8.33;;
18168;SDS011;49877;50.398;30.324;2022-10-16T01:58:19;17.23;;;9.60;;
18168;SDS011;49877;50.398;30.324;2022-10-16T02:00:48;16.27;;;9.13;;
18168;SDS011;49877;50.398;30.324;2022-10-16T02:03:17;16.37;;;8.13;;
18168;SDS011;49877;50.398;30.324;2022-10-16T02:05:46;15.80;;;9.10;;
18168;SDS011;49877;50.398;30.324;2022-10-16T02:08:15;16.00;;;8.07;;
18168;SDS011;49877;50.398;30.324;2022-10-16T02:10:42;11.47;;;7.83;;
18168;SDS011;49877;50.398;30.324;2022-10-16T02:13:09;14.30;;;8.63;;
18168;SDS011;49877;50.398;30.324;2022-10-16T02:15:40;15.90;;;8.83;;
18168;SDS011;49877;50.398;30.324;2022-10-16T02:18:07;14.13;;;8.33;;
18168;SDS011;49877;50.398;30.324;2022-10-16T02:20:36;12.60;;;8.13;;
18168;SDS011;49877;50.398;30.324;2022-10-16T02:23:09;15.07;;;8.73;;
18168;SDS011;49877;50.398;30.324;2022-10-16T02:25:41;12.90;;;8.30;;
18168;SDS011;49877;50.398;30.324;2022-10-16T02:28:13;15.23;;;8.53;;
18168;SDS011;49877;50.398;30.324;2022-10-16T02:30:47;16.40;;;8.90;;
18168;SDS011;49877;50.398;30.324;2022-10-16T02:33:16;15.77;;;8.63;;
18168;SDS011;49877;50.398;30.324;2022-10-16T02:35:45;15.30;;;9.13;;
18168;SDS011;49877;50.398;30.324;2022-10-16T02:38:16;17.63;;;9.17;;
18168;SDS011;49877;50.398;30.324;2022-10-16T02:40:44;16.37;;;8.73;;
18168;SDS011;49877;50.398;30.324;2022-10-16T02:43:11;12.60;;;8.20;;
18168;SDS011;49877;50.398;30.324;2022-10-16T02:45:39;18.33;;;9.80;;
18168;SDS011;49877;50.398;30.324;2022-10-16T02:48:07;15.43;;;8.80;;
18168;SDS011;49877;50.398;30.324;2022-10-16T02:50:34;15.27;;;9.27;;
18168;SDS011;49877;50.398;30.324;2022-10-16T02:53:01;16.07;;;9.37;;
18168;SDS011;49877;50.398;30.324;2022-10-16T02:55:28;16.20;;;9.40;;
18168;SDS011;49877;50.398;30.324;2022-10-16T02:57:55;16.40;;;9.33;;
18168;SDS011;49877;50.398;30.324;2022-10-16T03:00:21;17.30;;;9.50;;
18168;SDS011;49877;50.398;30.324;2022-10-16T03:02:49;15.43;;;8.63;;
18168;SDS011;49877;50.398;30.324;2022-10-16T03:05:17;13.83;;;8.83;;
18168;SDS011;49877;50.398;30.324;2022-10-16T03:07:44;12.87;;;8.50;;
18168;SDS011;49877;50.398;30.324;2022-10-16T03:10:10;11.40;;;8.03;;
18168;SDS011;49877;50.398;30.324;2022-10-16T03:12:37;14.47;;;8.90;;
18168;SDS011;49877;50.398;30.324;2022-10-16T03:15:04;14.10;;;8.67;;
18168;SDS011;49877;50.398;30.324;2022-10-16T03:17:32;14.53;;;8.83;;
18168;SDS011;49877;50.398;30.324;2022-10-16T03:19:59;16.37;;;9.40;;
18168;SDS011;49877;50.398;30.324;2022-10-16T03:22:27;15.83;;;8.60;;
18168;SDS011;49877;50.398;30.324;2022-10-16T03:24:54;13.57;;;8.80;;
18168;SDS011;49877;50.398;30.324;2022-10-16T03:27:21;17.00;;;8.90;;
18168;SDS011;49877;50.398;30.324;2022-10-16T03:29:48;13.50;;;8.63;;
18168;SDS011;49877;50.398;30.324;2022-10-16T03:32:14;14.07;;;8.80;;
18168;SDS011;49877;50.398;30.324;2022-10-16T03:34:41;15.97;;;9.00;;
18168;SDS011;49877;50.398;30.324;2022-10-16T03:37:08;16.10;;;9.30;;
18168;SDS011;49877;50.398;30.324;2022-10-16T03:39:36;18.80;;;10.23;;
18168;SDS011;49877;50.398;30.324;2022-10-16T03:42:03;19.43;;;9.97;;
18168;SDS011;49877;50.398;30.324;2022-10-16T03:44:30;21.63;;;10.50;;
18168;SDS011;49877;50.398;30.324;2022-10-16T03:46:56;16.50;;;9.30;;
18168;SDS011;49877;50.398;30.324;2022-10-16T03:49:23;16.13;;;9.87;;
18168;SDS011;49877;50.398;30.324;2022-10-16T03:51:50;19.90;;;10.03;;
18168;SDS011;49877;50.398;30.324;2022-10-16T03:54:17;14.73;;;9.57;;
18168;SDS011;49877;50.398;30.324;2022-10-16T03:56:45;18.07;;;10.63;;
18168;SDS011;49877;50.398;30.324;2022-10-16T03:59:12;18.83;;;9.97;;
18168;SDS011;49877;50.398;30.324;2022-10-16T04:01:39;16.43;;;9.63;;
18168;SDS011;49877;50.398;30.324;2022-10-16T04:04:06;16.80;;;10.10;;
18168;SDS011;49877;50.398;30.324;2022-10-16T04:06:33;16.70;;;9.90;;
18168;SDS011;49877;50.398;30.324;2022-10-16T04:09:00;18.40;;;10.80;;
18168;SDS011;49877;50.398;30.324;2022-10-16T04:11:26;20.37;;;11.03;;
18168;SDS011;49877;50.398;30.324;2022-10-16T04:13:55;20.17;;;9.87;;
18168;SDS011;49877;50.398;30.324;2022-10-16T04:16:22;16.43;;;9.80;;
18168;SDS011;49877;50.398;30.324;2022-10-16T04:18:49;15.63;;;9.90;;
18168;SDS011;49877;50.398;30.324;2022-10-16T04:21:15;17.10;;;9.57;;
18168;SDS011;49877;50.398;30.324;2022-10-16T04:23:42;14.53;;;9.70;;
18168;SDS011;49877;50.398;30.324;2022-10-16T04:26:09;14.87;;;9.47;;
18168;SDS011;49877;50.398;30.324;2022-10-16T04:28:36;19.33;;;10.30;;
18168;SDS011;49877;50.398;30.324;2022-10-16T04:31:05;16.50;;;9.33;;
18168;SDS011;49877;50.398;30.324;2022-10-16T04:33:32;15.67;;;9.83;;
18168;SDS011;49877;50.398;30.324;2022-10-16T04:35:59;18.37;;;9.90;;
18168;SDS011;49877;50.398;30.324;2022-10-16T04:38:26;19.77;;;10.60;;
18168;SDS011;49877;50.398;30.324;2022-10-16T04:40:53;15.30;;;9.37;;
18168;SDS011;49877;50.398;30.324;2022-10-16T04:43:20;16.17;;;9.97;;
18168;SDS011;49877;50.398;30.324;2022-10-16T04:45:47;16.10;;;9.97;;
18168;SDS011;49877;50.398;30.324;2022-10-16T04:48:16;20.60;;;10.83;;
18168;SDS011;49877;50.398;30.324;2022-10-16T04:50:43;17.73;;;11.00;;
18168;SDS011;49877;50.398;30.324;2022-10-16T04:53:10;17.83;;;10.40;;
18168;SDS011;49877;50.398;30.324;2022-10-16T04:55:37;16.90;;;10.40;;
18168;SDS011;49877;50.398;30.324;2022-10-16T04:58:04;22.37;;;11.37;;
18168;SDS011;49877;50.398;30.324;2022-10-16T05:00:31;17.97;;;10.60;;
18168;SDS011;49877;50.398;30.324;2022-10-16T05:02:57;18.70;;;10.70;;
18168;SDS011;49877;50.398;30.324;2022-10-16T05:05:27;19.50;;;10.70;;
18168;SDS011;49877;50.398;30.324;2022-10-16T05:07:54;18.40;;;10.50;;
18168;SDS011;49877;50.398;30.324;2022-10-16T05:10:21;16.90;;;10.40;;
18168;SDS011;49877;50.398;30.324;2022-10-16T05:12:47;20.73;;;11.07;;
18168;SDS011;49877;50.398;30.324;2022-10-16T05:15:15;18.53;;;10.13;;
18168;SDS011;49877;50.398;30.324;2022-10-16T05:17:41;16.93;;;10.67;;
18168;SDS011;49877;50.398;30.324;2022-10-16T05:20:08;16.07;;;9.70;;
18168;SDS011;49877;50.398;30.324;2022-10-16T05:22:36;16.90;;;9.70;;
18168;SDS011;49877;50.398;30.324;2022-10-16T05:25:04;17.63;;;9.77;;
18168;SDS011;49877;50.398;30.324;2022-10-16T05:27:31;18.30;;;11.00;;
18168;SDS011;49877;50.398;30.324;2022-10-16T05:29:58;19.40;;;10.60;;
18168;SDS011;49877;50.398;30.324;2022-10-16T05:32:24;16.87;;;10.67;;
18168;SDS011;49877;50.398;30.324;2022-10-16T05:34:51;18.70;;;11.70;;
18168;SDS011;49877;50.398;30.324;2022-10-16T05:37:18;20.90;;;12.43;;
18168;SDS011;49877;50.398;30.324;2022-10-16T05:39:46;19.20;;;12.13;;
18168;SDS011;49877;50.398;30.324;2022-10-16T05:42:13;18.17;;;11.90;;
18168;SDS011;49877;50.398;30.324;2022-10-16T05:44:40;17.57;;;11.67;;
18168;SDS011;49877;50.398;30.324;2022-10-16T05:47:07;21.97;;;12.43;;
18168;SDS011;49877;50.398;30.324;2022-10-16T05:49:34;20.63;;;11.90;;
18168;SDS011;49877;50.398;30.324;2022-10-16T05:52:00;18.83;;;11.50;;
18168;SDS011;49877;50.398;30.324;2022-10-16T05:54:27;17.50;;;11.03;;
18168;SDS011;49877;50.398;30.324;2022-10-16T05:56:55;18.87;;;10.73;;
18168;SDS011;49877;50.398;30.324;2022-10-16T05:59:22;18.63;;;10.60;;
18168;SDS011;49877;50.398;30.324;2022-10-16T06:01:49;19.43;;;10.33;;
18168;SDS011;49877;50.398;30.324;2022-10-16T06:04:15;17.90;;;10.67;;
18168;SDS011;49877;50.398;30.324;2022-10-16T06:06:42;16.17;;;10.30;;
18168;SDS011;49877;50.398;30.324;2022-10-16T06:09:09;18.10;;;10.63;;
18168;SDS011;49877;50.398;30.324;2022-10-16T06:11:36;15.70;;;9.63;;
18168;SDS011;49877;50.398;30.324;2022-10-16T06:14:04;17.63;;;9.67;;
18168;SDS011;49877;50.398;30.324;2022-10-16T06:16:32;15.23;;;9.77;;
18168;SDS011;49877;50.398;30.324;2022-10-16T06:19:00;13.93;;;8.73;;
18168;SDS011;49877;50.398;30.324;2022-10-16T06:21:29;13.60;;;8.03;;
18168;SDS011;49877;50.398;30.324;2022-10-16T06:23:56;16.27;;;8.87;;
18168;SDS011;49877;50.398;30.324;2022-10-16T06:26:24;15.60;;;9.17;;
18168;SDS011;49877;50.398;30.324;2022-10-16T06:28:53;16.40;;;8.70;;
18168;SDS011;49877;50.398;30.324;2022-10-16T06:31:22;14.10;;;8.87;;
18168;SDS011;49877;50.398;30.324;2022-10-16T06:33:52;15.30;;;8.77;;
18168;SDS011;49877;50.398;30.324;2022-10-16T06:36:20;15.03;;;8.20;;
18168;SDS011;49877;50.398;30.324;2022-10-16T06:38:47;11.23;;;7.60;;
18168;SDS011;49877;50.398;30.324;2022-10-16T06:41:14;13.53;;;7.77;;
18168;SDS011;49877;50.398;30.324;2022-10-16T06:43:42;12.70;;;7.50;;
18168;SDS011;49877;50.398;30.324;2022-10-16T06:46:10;18.47;;;8.90;;
18168;SDS011;49877;50.398;30.324;2022-10-16T06:48:40;14.73;;;8.80;;
18168;SDS011;49877;50.398;30.324;2022-10-16T06:51:09;12.47;;;8.20;;
18168;SDS011;49877;50.398;30.324;2022-10-16T06:53:37;17.43;;;8.77;;
18168;SDS011;49877;50.398;30.324;2022-10-16T06:56:08;15.10;;;8.83;;
18168;SDS011;49877;50.398;30.324;2022-10-16T06:58:37;12.07;;;8.10;;
18168;SDS011;49877;50.398;30.324;2022-10-16T07:01:04;14.73;;;8.40;;
18168;SDS011;49877;50.398;30.324;2022-10-16T07:03:31;17.90;;;10.37;;
18168;SDS011;49877;50.398;30.324;2022-10-16T07:06:02;13.70;;;8.77;;
18168;SDS011;49877;50.398;30.324;2022-10-16T07:08:30;20.03;;;8.57;;
18168;SDS011;49877;50.398;30.324;2022-10-16T07:10:58;13.70;;;8.20;;
18168;SDS011;49877;50.398;30.324;2022-10-16T07:13:26;15.10;;;8.90;;
18168;SDS011;49877;50.398;30.324;2022-10-16T07:15:53;13.80;;;8.20;;
18168;SDS011;49877;50.398;30.324;2022-10-16T07:18:19;11.87;;;8.07;;
18168;SDS011;49877;50.398;30.324;2022-10-16T07:20:51;17.37;;;8.20;;
18168;SDS011;49877;50.398;30.324;2022-10-16T07:23:19;12.57;;;7.70;;
18168;SDS011;49877;50.398;30.324;2022-10-16T07:25:45;12.93;;;8.20;;
18168;SDS011;49877;50.398;30.324;2022-10-16T07:28:19;14.23;;;8.30;;
18168;SDS011;49877;50.398;30.324;2022-10-16T07:30:46;24.10;;;14.23;;
18168;SDS011;49877;50.398;30.324;2022-10-16T07:33:14;16.13;;;8.50;;
18168;SDS011;49877;50.398;30.324;2022-10-16T07:35:47;14.13;;;7.63;;
18168;SDS011;49877;50.398;30.324;2022-10-16T07:38:14;13.60;;;7.90;;
18168;SDS011;49877;50.398;30.324;2022-10-16T07:40:42;12.73;;;7.87;;
18168;SDS011;49877;50.398;30.324;2022-10-16T07:43:09;11.40;;;7.27;;
18168;SDS011;49877;50.398;30.324;2022-10-16T07:45:36;18.33;;;11.47;;
18168;SDS011;49877;50.398;30.324;2022-10-16T07:48:03;14.63;;;7.80;;
18168;SDS011;49877;50.398;30.324;2022-10-16T07:50:30;13.33;;;8.03;;
18168;SDS011;49877;50.398;30.324;2022-10-16T07:52:57;14.33;;;8.40;;
18168;SDS011;49877;50.398;30.324;2022-10-16T07:55:24;15.63;;;8.47;;
18168;SDS011;49877;50.398;30.324;2022-10-16T07:57:52;16.50;;;9.33;;
18168;SDS011;49877;50.398;30.324;2022-10-16T08:00:18;20.33;;;9.67;;
18168;SDS011;49877;50.398;30.324;2022-10-16T08:02:45;18.80;;;9.70;;
18168;SDS011;49877;50.398;30.324;2022-10-16T08:05:12;19.73;;;9.67;;
18168;SDS011;49877;50.398;30.324;2022-10-16T08:07:39;18.17;;;9.77;;
18168;SDS011;49877;50.398;30.324;2022-10-16T08:10:06;18.23;;;9.20;;
18168;SDS011;49877;50.398;30.324;2022-10-16T08:12:38;14.83;;;7.90;;
18168;SDS011;49877;50.398;30.324;2022-10-16T08:15:07;15.23;;;7.90;;
18168;SDS011;49877;50.398;30.324;2022-10-16T08:17:34;15.37;;;7.77;;
18168;SDS011;49877;50.398;30.324;2022-10-16T08:20:01;19.23;;;7.30;;
18168;SDS011;49877;50.398;30.324;2022-10-16T08:22:29;11.80;;;6.70;;
18168;SDS011;49877;50.398;30.324;2022-10-16T08:24:56;11.30;;;6.70;;
18168;SDS011;49877;50.398;30.324;2022-10-16T08:27:23;11.60;;;6.60;;
18168;SDS011;49877;50.398;30.324;2022-10-16T08:29:49;10.60;;;6.13;;
18168;SDS011;49877;50.398;30.324;2022-10-16T08:32:17;10.00;;;6.03;;
18168;SDS011;49877;50.398;30.324;2022-10-16T08:34:44;16.13;;;9.03;;
18168;SDS011;49877;50.398;30.324;2022-10-16T08:37:11;22.50;;;14.87;;
18168;SDS011;49877;50.398;30.324;2022-10-16T08:39:38;12.30;;;7.23;;
18168;SDS011;49877;50.398;30.324;2022-10-16T08:42:11;12.13;;;6.27;;
18168;SDS011;49877;50.398;30.324;2022-10-16T08:45:08;13.20;;;6.53;;
18168;SDS011;49877;50.398;30.324;2022-10-16T08:48:00;9.83;;;5.80;;
18168;SDS011;49877;50.398;30.324;2022-10-16T08:50:38;7.53;;;5.23;;
18168;SDS011;49877;50.398;30.324;2022-10-16T08:53:06;9.00;;;5.50;;
18168;SDS011;49877;50.398;30.324;2022-10-16T08:55:37;12.13;;;5.63;;
18168;SDS011;49877;50.398;30.324;2022-10-16T08:58:10;8.63;;;5.03;;
18168;SDS011;49877;50.398;30.324;2022-10-16T09:00:39;9.03;;;5.70;;
18168;SDS011;49877;50.398;30.324;2022-10-16T09:03:10;18.83;;;8.67;;
18168;SDS011;49877;50.398;30.324;2022-10-16T09:05:49;11.33;;;5.07;;
18168;SDS011;49877;50.398;30.324;2022-10-16T09:08:46;10.90;;;5.47;;
18168;SDS011;49877;50.398;30.324;2022-10-16T09:11:24;10.70;;;5.27;;
18168;SDS011;49877;50.398;30.324;2022-10-16T09:14:00;9.07;;;4.83;;
18168;SDS011;49877;50.398;30.324;2022-10-16T09:16:33;11.10;;;5.13;;
18168;SDS011;49877;50.398;30.324;2022-10-16T09:19:04;8.17;;;4.80;;
18168;SDS011;49877;50.398;30.324;2022-10-16T09:21:40;7.97;;;4.90;;
18168;SDS011;49877;50.398;30.324;2022-10-16T09:24:09;13.73;;;5.60;;
18168;SDS011;49877;50.398;30.324;2022-10-16T09:26:40;9.83;;;5.23;;
18168;SDS011;49877;50.398;30.324;2022-10-16T09:29:08;8.10;;;4.80;;
18168;SDS011;49877;50.398;30.324;2022-10-16T09:31:38;9.80;;;5.50;;
18168;SDS011;49877;50.398;30.324;2022-10-16T09:34:06;14.63;;;5.47;;
18168;SDS011;49877;50.398;30.324;2022-10-16T09:36:44;9.20;;;5.40;;
18168;SDS011;49877;50.398;30.324;2022-10-16T09:39:12;10.03;;;5.70;;
18168;SDS011;49877;50.398;30.324;2022-10-16T09:41:39;9.37;;;5.33;;
18168;SDS011;49877;50.398;30.324;2022-10-16T09:44:15;8.90;;;5.53;;
18168;SDS011;49877;50.398;30.324;2022-10-16T09:46:47;9.97;;;5.47;;
18168;SDS011;49877;50.398;30.324;2022-10-16T09:49:22;13.23;;;6.80;;
18168;SDS011;49877;50.398;30.324;2022-10-16T09:51:50;11.30;;;5.37;;
18168;SDS011;49877;50.398;30.324;2022-10-16T09:54:29;10.73;;;5.23;;
18168;SDS011;49877;50.398;30.324;2022-10-16T09:57:03;8.90;;;5.60;;
18168;SDS011;49877;50.398;30.324;2022-10-16T09:59:31;11.27;;;5.23;;
18168;SDS011;49877;50.398;30.324;2022-10-16T10:02:01;11.50;;;5.20;;
18168;SDS011;49877;50.398;30.324;2022-10-16T10:04:38;12.87;;;6.10;;
18168;SDS011;49877;50.398;30.324;2022-10-16T10:07:07;9.90;;;5.00;;
18168;SDS011;49877;50.398;30.324;2022-10-16T10:09:44;10.00;;;5.23;;
18168;SDS011;49877;50.398;30.324;2022-10-16T10:12:19;7.30;;;4.80;;
18168;SDS011;49877;50.398;30.324;2022-10-16T10:14:48;8.17;;;4.70;;
18168;SDS011;49877;50.398;30.324;2022-10-16T10:17:17;12.03;;;4.83;;
18168;SDS011;49877;50.398;30.324;2022-10-16T10:19:50;8.30;;;4.70;;
18168;SDS011;49877;50.398;30.324;2022-10-16T10:22:24;7.03;;;4.60;;
18168;SDS011;49877;50.398;30.324;2022-10-16T10:28:17;11.50;;;5.13;;
18168;SDS011;49877;50.398;30.324;2022-10-16T10:31:01;11.47;;;5.60;;
18168;SDS011;49877;50.398;30.324;2022-10-16T10:33:36;9.17;;;5.40;;
18168;SDS011;49877;50.398;30.324;2022-10-16T10:36:14;8.23;;;4.73;;
18168;SDS011;49877;50.398;30.324;2022-10-16T10:38:49;9.17;;;4.97;;
18168;SDS011;49877;50.398;30.324;2022-10-16T10:44:26;7.67;;;5.17;;
18168;SDS011;49877;50.398;30.324;2022-10-16T10:47:11;8.83;;;5.17;;
18168;SDS011;49877;50.398;30.324;2022-10-16T10:49:48;9.93;;;4.80;;
18168;SDS011;49877;50.398;30.324;2022-10-16T10:52:31;9.47;;;4.43;;
18168;SDS011;49877;50.398;30.324;2022-10-16T10:55:10;10.83;;;4.20;;
18168;SDS011;49877;50.398;30.324;2022-10-16T10:57:47;10.03;;;5.17;;
18168;SDS011;49877;50.398;30.324;2022-10-16T11:00:33;9.40;;;4.70;;
18168;SDS011;49877;50.398;30.324;2022-10-16T11:03:11;8.63;;;4.30;;
18168;SDS011;49877;50.398;30.324;2022-10-16T11:05:54;6.67;;;4.30;;
18168;SDS011;49877;50.398;30.324;2022-10-16T11:08:27;7.93;;;4.50;;
18168;SDS011;49877;50.398;30.324;2022-10-16T11:11:00;9.37;;;4.40;;
18168;SDS011;49877;50.398;30.324;2022-10-16T11:13:33;7.53;;;4.30;;
18168;SDS011;49877;50.398;30.324;2022-10-16T11:16:06;9.97;;;3.87;;
18168;SDS011;49877;50.398;30.324;2022-10-16T11:18:43;6.40;;;4.10;;
18168;SDS011;49877;50.398;30.324;2022-10-16T11:21:16;7.83;;;3.80;;
18168;SDS011;49877;50.398;30.324;2022-10-16T11:23:48;12.40;;;4.37;;
18168;SDS011;49877;50.398;30.324;2022-10-16T11:26:20;7.57;;;3.53;;
18168;SDS011;49877;50.398;30.324;2022-10-16T11:28:51;9.07;;;3.60;;
18168;SDS011;49877;50.398;30.324;2022-10-16T11:31:22;8.00;;;3.67;;
18168;SDS011;49877;50.398;30.324;2022-10-16T11:33:57;6.23;;;3.47;;
18168;SDS011;49877;50.398;30.324;2022-10-16T11:36:31;5.97;;;3.73;;
18168;SDS011;49877;50.398;30.324;2022-10-16T11:39:04;7.07;;;4.63;;
18168;SDS011;49877;50.398;30.324;2022-10-16T11:41:44;8.00;;;4.27;;
18168;SDS011;49877;50.398;30.324;2022-10-16T11:44:20;6.57;;;4.10;;
18168;SDS011;49877;50.398;30.324;2022-10-16T11:47:01;5.23;;;3.63;;
18168;SDS011;49877;50.398;30.324;2022-10-16T11:49:34;10.23;;;4.07;;
18168;SDS011;49877;50.398;30.324;2022-10-16T11:52:05;10.77;;;5.73;;
18168;SDS011;49877;50.398;30.324;2022-10-16T11:54:43;9.70;;;4.10;;
18168;SDS011;49877;50.398;30.324;2022-10-16T11:57:18;7.83;;;3.83;;
18168;SDS011;49877;50.398;30.324;2022-10-16T11:59:50;5.90;;;2.90;;
18168;SDS011;49877;50.398;30.324;2022-10-16T12:02:30;5.63;;;3.43;;
18168;SDS011;49877;50.398;30.324;2022-10-16T12:05:06;6.87;;;3.40;;
18168;SDS011;49877;50.398;30.324;2022-10-16T12:07:47;5.33;;;3.30;;
18168;SDS011;49877;50.398;30.324;2022-10-16T12:10:23;8.17;;;3.70;;
18168;SDS011;49877;50.398;30.324;2022-10-16T12:12:51;6.10;;;3.50;;
18168;SDS011;49877;50.398;30.324;2022-10-16T12:15:19;8.63;;;3.20;;
18168;SDS011;49877;50.398;30.324;2022-10-16T12:17:49;7.40;;;3.70;;
18168;SDS011;49877;50.398;30.324;2022-10-16T12:20:21;6.40;;;3.23;;
18168;SDS011;49877;50.398;30.324;2022-10-16T12:22:52;5.87;;;3.40;;
18168;SDS011;49877;50.398;30.324;2022-10-16T12:25:22;8.23;;;3.27;;
18168;SDS011;49877;50.398;30.324;2022-10-16T12:27:56;5.93;;;3.70;;
18168;SDS011;49877;50.398;30.324;2022-10-16T12:30:26;7.60;;;4.00;;
18168;SDS011;49877;50.398;30.324;2022-10-16T12:32:55;8.80;;;5.90;;
18168;SDS011;49877;50.398;30.324;2022-10-16T12:35:24;7.00;;;4.43;;
18168;SDS011;49877;50.398;30.324;2022-10-16T12:37:53;5.90;;;3.40;;
18168;SDS011;49877;50.398;30.324;2022-10-16T12:40:32;7.23;;;4.07;;
18168;SDS011;49877;50.398;30.324;2022-10-16T12:43:10;8.07;;;3.87;;
18168;SDS011;49877;50.398;30.324;2022-10-16T12:45:38;5.37;;;3.60;;
18168;SDS011;49877;50.398;30.324;2022-10-16T12:48:18;7.47;;;3.60;;
18168;SDS011;49877;50.398;30.324;2022-10-16T12:50:47;8.00;;;3.93;;
18168;SDS011;49877;50.398;30.324;2022-10-16T12:53:18;8.63;;;3.57;;
18168;SDS011;49877;50.398;30.324;2022-10-16T12:55:50;6.57;;;3.90;;
18168;SDS011;49877;50.398;30.324;2022-10-16T12:58:38;7.00;;;4.20;;
18168;SDS011;49877;50.398;30.324;2022-10-16T13:01:18;10.57;;;4.47;;
18168;SDS011;49877;50.398;30.324;2022-10-16T13:04:02;7.73;;;3.83;;
18168;SDS011;49877;50.398;30.324;2022-10-16T13:06:42;7.40;;;3.77;;
18168;SDS011;49877;50.398;30.324;2022-10-16T13:09:19;10.00;;;4.10;;
18168;SDS011;49877;50.398;30.324;2022-10-16T13:12:07;7.93;;;3.80;;
18168;SDS011;49877;50.398;30.324;2022-10-16T13:15:06;7.40;;;4.10;;
18168;SDS011;49877;50.398;30.324;2022-10-16T13:17:44;19.80;;;5.00;;
18168;SDS011;49877;50.398;30.324;2022-10-16T13:20:19;14.37;;;4.53;;
18168;SDS011;49877;50.398;30.324;2022-10-16T13:22:54;10.10;;;4.17;;
18168;SDS011;49877;50.398;30.324;2022-10-16T13:25:28;9.27;;;4.33;;
18168;SDS011;49877;50.398;30.324;2022-10-16T13:28:08;11.83;;;4.13;;
18168;SDS011;49877;50.398;30.324;2022-10-16T13:30:37;9.53;;;4.27;;
18168;SDS011;49877;50.398;30.324;2022-10-16T13:33:06;8.47;;;3.97;;
18168;SDS011;49877;50.398;30.324;2022-10-16T13:35:45;9.83;;;5.40;;
18168;SDS011;49877;50.398;30.324;2022-10-16T13:38:14;9.47;;;4.57;;
18168;SDS011;49877;50.398;30.324;2022-10-16T13:40:49;10.13;;;4.30;;
18168;SDS011;49877;50.398;30.324;2022-10-16T13:43:19;13.60;;;4.47;;
18168;SDS011;49877;50.398;30.324;2022-10-16T13:45:55;8.30;;;4.10;;
18168;SDS011;49877;50.398;30.324;2022-10-16T13:48:23;7.47;;;4.30;;
18168;SDS011;49877;50.398;30.324;2022-10-16T13:53:38;8.03;;;4.20;;
18168;SDS011;49877;50.398;30.324;2022-10-16T13:56:06;10.80;;;4.50;;
18168;SDS011;49877;50.398;30.324;2022-10-16T13:58:38;8.53;;;4.90;;
18168;SDS011;49877;50.398;30.324;2022-10-16T14:01:05;10.40;;;4.87;;
18168;SDS011;49877;50.398;30.324;2022-10-16T14:03:40;9.07;;;4.73;;
18168;SDS011;49877;50.398;30.324;2022-10-16T14:06:11;10.97;;;4.60;;
18168;SDS011;49877;50.398;30.324;2022-10-16T14:08:42;8.63;;;4.53;;
18168;SDS011;49877;50.398;30.324;2022-10-16T14:11:12;12.27;;;5.40;;
18168;SDS011;49877;50.398;30.324;2022-10-16T14:13:43;10.43;;;5.70;;
18168;SDS011;49877;50.398;30.324;2022-10-16T14:16:15;11.63;;;4.87;;
18168;SDS011;49877;50.398;30.324;2022-10-16T14:18:45;10.10;;;4.70;;
18168;SDS011;49877;50.398;30.324;2022-10-16T14:21:17;8.07;;;4.37;;
18168;SDS011;49877;50.398;30.324;2022-10-16T14:23:44;11.83;;;4.80;;
18168;SDS011;49877;50.398;30.324;2022-10-16T14:26:12;12.70;;;5.00;;
18168;SDS011;49877;50.398;30.324;2022-10-16T14:28:43;12.13;;;4.93;;
18168;SDS011;49877;50.398;30.324;2022-10-16T14:31:23;11.77;;;4.90;;
18168;SDS011;49877;50.398;30.324;2022-10-16T14:33:54;10.70;;;5.10;;
18168;SDS011;49877;50.398;30.324;2022-10-16T14:36:22;10.17;;;4.67;;
18168;SDS011;49877;50.398;30.324;2022-10-16T14:38:52;9.37;;;5.00;;
18168;SDS011;49877;50.398;30.324;2022-10-16T14:41:25;12.13;;;4.97;;
18168;SDS011;49877;50.398;30.324;2022-10-16T14:43:54;13.07;;;5.27;;
18168;SDS011;49877;50.398;30.324;2022-10-16T14:46:28;9.90;;;5.70;;
18168;SDS011;49877;50.398;30.324;2022-10-16T14:48:59;14.70;;;6.63;;
18168;SDS011;49877;50.398;30.324;2022-10-16T14:51:28;10.43;;;6.43;;
18168;SDS011;49877;50.398;30.324;2022-10-16T14:53:55;10.03;;;5.60;;
18168;SDS011;49877;50.398;30.324;2022-10-16T14:56:23;15.10;;;5.83;;
18168;SDS011;49877;50.398;30.324;2022-10-16T14:58:56;17.03;;;8.47;;
18168;SDS011;49877;50.398;30.324;2022-10-16T15:01:23;13.97;;;7.23;;
18168;SDS011;49877;50.398;30.324;2022-10-16T15:03:49;13.13;;;7.47;;